createdAt,value
2023-05-10T00:00:51.978Z,40.34
2023-05-10T00:01:51.991Z,40.47
2023-05-10T00:02:52.169Z,40.47
2023-05-10T00:03:52.013Z,40.43
2023-05-10T00:04:51.966Z,40.47
2023-05-10T00:05:51.952Z,40.55
2023-05-10T00:06:51.964Z,40.49
2023-05-10T00:07:51.986Z,40.50
2023-05-10T00:08:51.990Z,40.50
2023-05-10T00:09:51.974Z,40.57
2023-05-10T00:10:51.969Z,40.58
2023-05-10T00:11:51.989Z,40.60
2023-05-10T00:12:52.050Z,40.50
2023-05-10T00:13:51.965Z,40.62
2023-05-10T00:14:51.994Z,40.61
2023-05-10T00:15:51.972Z,40.63
2023-05-10T00:16:52.112Z,40.60
2023-05-10T00:17:52.056Z,40.57
2023-05-10T00:18:51.989Z,40.54
2023-05-10T00:19:51.953Z,40.66
2023-05-10T00:20:51.958Z,40.67
2023-05-10T00:21:51.941Z,40.64
2023-05-10T00:22:51.948Z,40.65
2023-05-10T00:23:51.968Z,40.62
2023-05-10T00:24:51.966Z,40.68
2023-05-10T00:25:51.959Z,40.62
2023-05-10T00:26:51.956Z,40.60
2023-05-10T00:27:51.954Z,40.61
2023-05-10T00:28:51.933Z,40.61
2023-05-10T00:29:51.949Z,40.63
2023-05-10T00:30:51.938Z,40.58
2023-05-10T00:31:51.999Z,40.64
2023-05-10T00:32:52.021Z,40.57
2023-05-10T00:33:51.944Z,40.59
2023-05-10T00:34:51.926Z,40.60
2023-05-10T00:35:51.944Z,40.62
2023-05-10T00:36:51.946Z,40.64
2023-05-10T00:37:51.921Z,40.64
2023-05-10T00:38:51.932Z,40.56
2023-05-10T00:39:51.919Z,40.58
2023-05-10T00:40:51.931Z,40.57
2023-05-10T00:41:51.961Z,40.55
2023-05-10T00:42:51.963Z,40.52
2023-05-10T00:43:51.932Z,40.51
2023-05-10T00:44:51.897Z,40.47
2023-05-10T00:45:51.983Z,40.53
2023-05-10T00:46:51.930Z,40.51
2023-05-10T00:47:51.942Z,40.52
2023-05-10T00:48:51.908Z,40.51
2023-05-10T00:49:51.905Z,40.49
2023-05-10T00:50:51.873Z,40.50
2023-05-10T00:51:51.881Z,40.55
2023-05-10T00:52:51.892Z,40.58
2023-05-10T00:53:51.879Z,40.57
2023-05-10T00:54:51.881Z,40.59
2023-05-10T00:55:51.865Z,40.60
2023-05-10T00:56:51.855Z,40.65
2023-05-10T00:57:51.867Z,40.67
2023-05-10T00:58:51.870Z,40.65
2023-05-10T00:59:51.851Z,40.65
2023-05-10T01:00:51.841Z,40.67
2023-05-10T01:01:51.826Z,40.66
2023-05-10T01:02:51.943Z,40.59
2023-05-10T01:03:51.778Z,40.51
2023-05-10T01:04:51.832Z,40.53
2023-05-10T01:05:51.794Z,40.58
2023-05-10T01:06:51.769Z,40.60
2023-05-10T01:07:51.801Z,40.59
2023-05-10T01:08:51.766Z,40.49
2023-05-10T01:09:51.767Z,40.58
2023-05-10T01:10:51.752Z,40.57
2023-05-10T01:11:51.732Z,40.53
2023-05-10T01:12:51.780Z,40.44
2023-05-10T01:13:51.719Z,40.47
2023-05-10T01:14:51.729Z,40.43
2023-05-10T01:15:51.774Z,40.40
2023-05-10T01:16:51.778Z,40.37
2023-05-10T01:17:52.036Z,40.37
2023-05-10T01:18:51.668Z,40.33
2023-05-10T01:19:51.695Z,40.30
2023-05-10T01:20:51.674Z,40.36
2023-05-10T01:21:51.700Z,40.28
2023-05-10T01:22:51.693Z,40.23
2023-05-10T01:23:51.678Z,40.22
2023-05-10T01:24:51.696Z,40.18
2023-05-10T01:25:51.677Z,40.14
2023-05-10T01:26:51.652Z,40.03
2023-05-10T01:27:51.658Z,39.94
2023-05-10T01:28:51.663Z,40.00
2023-05-10T01:30:05.085Z,39.86
2023-05-10T01:30:52.596Z,39.88
2023-05-10T01:31:51.602Z,39.99
2023-05-10T01:32:51.659Z,39.84
2023-05-10T01:33:51.487Z,39.90
2023-05-10T01:34:51.475Z,39.81
2023-05-10T01:35:51.449Z,39.69
2023-05-10T01:36:51.379Z,39.76
2023-05-10T01:37:51.350Z,39.65
2023-05-10T01:38:51.292Z,39.69
2023-05-10T01:39:51.271Z,39.67
2023-05-10T01:40:51.202Z,39.55
2023-05-10T01:41:51.190Z,39.57
2023-05-10T01:42:51.153Z,39.53
2023-05-10T01:43:51.188Z,39.55
2023-05-10T01:44:51.188Z,39.50
2023-05-10T01:45:51.206Z,39.44
2023-05-10T01:46:51.264Z,39.41
2023-05-10T01:47:51.212Z,39.43
2023-05-10T01:48:51.229Z,39.43
2023-05-10T01:49:51.204Z,39.38
2023-05-10T01:50:51.225Z,39.26
2023-05-10T01:51:51.236Z,39.30
2023-05-10T01:52:51.272Z,39.31
2023-05-10T01:53:51.283Z,39.32
2023-05-10T01:54:51.307Z,39.22
2023-05-10T01:55:51.310Z,39.33
2023-05-10T01:56:51.335Z,39.39
2023-05-10T01:57:51.300Z,39.36
2023-05-10T01:58:51.331Z,39.32
2023-05-10T01:59:51.332Z,39.22
2023-05-10T02:00:51.369Z,39.31
2023-05-10T02:01:51.368Z,39.37
2023-05-10T02:02:51.470Z,39.32
2023-05-10T02:03:51.446Z,39.24
2023-05-10T02:04:51.452Z,39.27
2023-05-10T02:05:51.475Z,39.34
2023-05-10T02:06:51.471Z,39.26
2023-05-10T02:07:51.516Z,39.16
2023-05-10T02:08:51.487Z,39.07
2023-05-10T02:09:51.497Z,39.20
2023-05-10T02:10:51.469Z,39.26
2023-05-10T02:11:51.482Z,39.21
2023-05-10T02:12:51.551Z,39.29
2023-05-10T02:13:51.521Z,39.20
2023-05-10T02:14:51.528Z,39.16
2023-05-10T02:15:51.563Z,39.13
2023-05-10T02:16:51.651Z,39.08
2023-05-10T02:17:51.647Z,39.25
2023-05-10T02:18:51.637Z,39.28
2023-05-10T02:19:51.618Z,39.28
2023-05-10T02:20:51.623Z,39.36
2023-05-10T02:21:51.640Z,39.39
2023-05-10T02:22:51.711Z,39.37
2023-05-10T02:23:51.679Z,39.37
2023-05-10T02:24:51.670Z,39.38
2023-05-10T02:25:51.709Z,39.40
2023-05-10T02:26:51.685Z,39.40
2023-05-10T02:27:51.707Z,39.37
2023-05-10T02:28:51.737Z,39.38
2023-05-10T02:29:51.706Z,39.38
2023-05-10T02:30:51.718Z,39.44
2023-05-10T02:31:51.769Z,39.46
2023-05-10T02:32:51.861Z,39.50
2023-05-10T02:33:51.791Z,39.46
2023-05-10T02:34:51.808Z,39.50
2023-05-10T02:35:51.864Z,39.50
2023-05-10T02:36:51.841Z,39.42
2023-05-10T02:37:51.902Z,39.40
2023-05-10T02:38:51.918Z,39.36
2023-05-10T02:39:51.922Z,39.44
2023-05-10T02:40:51.942Z,39.36
2023-05-10T02:41:51.935Z,39.45
2023-05-10T02:42:51.969Z,39.48
2023-05-10T02:43:51.939Z,39.51
2023-05-10T02:44:51.964Z,39.47
2023-05-10T02:45:52.059Z,39.49
2023-05-10T02:46:51.984Z,39.50
2023-05-10T02:47:52.037Z,39.48
2023-05-10T02:48:51.969Z,39.52
2023-05-10T02:49:51.952Z,39.52
2023-05-10T02:50:51.957Z,39.52
2023-05-10T02:51:52.004Z,39.52
2023-05-10T02:52:51.959Z,39.54
2023-05-10T02:53:51.969Z,39.52
2023-05-10T02:54:51.977Z,39.53
2023-05-10T02:55:51.942Z,39.52
2023-05-10T02:56:51.979Z,39.57
2023-05-10T02:57:51.964Z,39.56
2023-05-10T02:58:51.985Z,39.53
2023-05-10T02:59:51.945Z,39.61
2023-05-10T03:00:51.990Z,39.59
2023-05-10T03:01:52.042Z,39.58
2023-05-10T03:02:52.139Z,39.53
2023-05-10T03:03:52.000Z,39.59
2023-05-10T03:04:52.118Z,39.59
2023-05-10T03:05:52.015Z,39.49
2023-05-10T03:06:52.027Z,39.54
2023-05-10T03:07:52.039Z,39.56
2023-05-10T03:08:52.045Z,39.61
2023-05-10T03:09:52.077Z,39.58
2023-05-10T03:10:52.107Z,39.59
2023-05-10T03:11:52.106Z,39.58
2023-05-10T03:12:52.144Z,39.52
2023-05-10T03:13:52.140Z,39.51
2023-05-10T03:14:52.119Z,39.53
2023-05-10T03:15:52.173Z,39.51
2023-05-10T03:16:52.155Z,39.52
2023-05-10T03:17:52.203Z,39.49
2023-05-10T03:18:52.172Z,39.37
2023-05-10T03:19:52.196Z,39.38
2023-05-10T03:20:52.213Z,39.35
2023-05-10T03:21:52.221Z,39.34
2023-05-10T03:22:52.218Z,39.26
2023-05-10T03:23:52.217Z,39.19
2023-05-10T03:24:52.218Z,39.26
2023-05-10T03:25:52.260Z,39.24
2023-05-10T03:26:52.280Z,39.21
2023-05-10T03:27:52.315Z,39.19
2023-05-10T03:28:52.331Z,39.13
2023-05-10T03:29:52.320Z,39.09
2023-05-10T03:30:52.311Z,39.09
2023-05-10T03:31:52.458Z,39.13
2023-05-10T03:32:52.420Z,39.14
2023-05-10T03:33:52.365Z,39.11
2023-05-10T03:34:52.389Z,39.10
2023-05-10T03:35:52.426Z,39.11
2023-05-10T03:36:52.399Z,39.14
2023-05-10T03:37:52.438Z,39.10
2023-05-10T03:38:52.405Z,39.13
2023-05-10T03:39:52.453Z,39.24
2023-05-10T03:40:52.444Z,39.15
2023-05-10T03:41:52.561Z,39.14
2023-05-10T03:42:52.497Z,39.12
2023-05-10T03:43:52.458Z,39.15
2023-05-10T03:44:52.479Z,39.20
2023-05-10T03:45:52.495Z,39.28
2023-05-10T03:46:52.569Z,39.21
2023-05-10T03:47:52.568Z,39.23
2023-05-10T03:48:52.562Z,39.18
2023-05-10T03:49:52.577Z,39.23
2023-05-10T03:50:52.596Z,39.32
2023-05-10T03:51:52.603Z,39.38
2023-05-10T03:52:54.110Z,39.38
2023-05-10T03:53:52.623Z,39.47
2023-05-10T03:54:52.617Z,39.43
2023-05-10T03:55:52.633Z,39.48
2023-05-10T03:56:52.648Z,39.49
2023-05-10T03:57:52.669Z,39.48
2023-05-10T03:58:52.655Z,39.59
2023-05-10T03:59:52.712Z,39.52
2023-05-10T04:00:52.622Z,39.51
2023-05-10T04:01:52.719Z,39.54
2023-05-10T04:02:52.767Z,39.53
2023-05-10T04:03:52.763Z,39.55
2023-05-10T04:04:52.644Z,39.52
2023-05-10T04:05:52.739Z,39.53
2023-05-10T04:06:52.627Z,39.53
2023-05-10T04:07:52.621Z,39.55
2023-05-10T04:08:52.625Z,39.53
2023-05-10T04:09:52.644Z,39.50
2023-05-10T04:10:52.617Z,39.54
2023-05-10T04:11:52.600Z,39.40
2023-05-10T04:12:52.696Z,39.44
2023-05-10T04:13:52.595Z,39.47
2023-05-10T04:14:52.602Z,39.43
2023-05-10T04:15:52.583Z,39.45
2023-05-10T04:16:52.576Z,39.37
2023-05-10T04:17:52.597Z,39.34
2023-05-10T04:18:52.611Z,39.36
2023-05-10T04:19:52.611Z,39.33
2023-05-10T04:20:52.596Z,39.33
2023-05-10T04:21:52.570Z,39.32
2023-05-10T04:22:52.577Z,39.33
2023-05-10T04:23:52.616Z,39.33
2023-05-10T04:24:52.621Z,39.33
2023-05-10T04:25:52.633Z,39.32
2023-05-10T04:26:52.636Z,39.22
2023-05-10T04:27:52.661Z,39.25
2023-05-10T04:28:52.654Z,39.24
2023-05-10T04:29:52.627Z,39.20
2023-05-10T04:30:52.716Z,39.16
2023-05-10T04:31:52.645Z,39.19
2023-05-10T04:32:52.699Z,39.13
2023-05-10T04:33:52.682Z,39.13
2023-05-10T04:34:52.705Z,39.12
2023-05-10T04:35:52.745Z,39.10
2023-05-10T04:36:52.736Z,39.07
2023-05-10T04:37:52.752Z,39.04
2023-05-10T04:38:52.800Z,39.03
2023-05-10T04:39:52.773Z,38.98
2023-05-10T04:40:52.807Z,38.95
2023-05-10T04:41:52.921Z,38.98
2023-05-10T04:42:52.815Z,38.86
2023-05-10T04:43:52.826Z,38.93
2023-05-10T04:44:52.847Z,38.92
2023-05-10T04:45:52.884Z,38.95
2023-05-10T04:46:52.833Z,38.93
2023-05-10T04:47:53.024Z,38.86
2023-05-10T04:48:52.878Z,38.89
2023-05-10T04:49:52.876Z,38.77
2023-05-10T04:50:52.877Z,38.85
2023-05-10T04:51:52.899Z,38.73
2023-05-10T04:52:53.353Z,38.83
2023-05-10T04:54:05.159Z,38.85
2023-05-10T04:54:53.864Z,38.85
2023-05-10T04:55:52.856Z,38.86
2023-05-10T04:56:52.816Z,38.89
2023-05-10T04:57:52.797Z,38.90
2023-05-10T04:58:52.726Z,38.92
2023-05-10T04:59:52.710Z,38.85
2023-05-10T05:01:01.106Z,38.85
2023-05-10T05:01:52.752Z,38.87
2023-05-10T05:02:52.865Z,38.79
2023-05-10T05:03:52.881Z,38.80
2023-05-10T05:04:52.809Z,38.74
2023-05-10T05:05:52.801Z,38.68
2023-05-10T05:06:53.914Z,38.66
2023-05-10T05:07:52.793Z,38.66
2023-05-10T05:08:52.834Z,38.61
2023-05-10T05:09:52.831Z,38.58
2023-05-10T05:10:52.853Z,38.54
2023-05-10T05:11:52.845Z,38.52
2023-05-10T05:12:52.908Z,38.44
2023-05-10T05:13:52.870Z,38.53
2023-05-10T05:14:52.872Z,38.50
2023-05-10T05:15:52.847Z,38.50
2023-05-10T05:16:52.912Z,38.46
2023-05-10T05:17:52.913Z,38.44
2023-05-10T05:18:52.857Z,38.42
2023-05-10T05:19:52.876Z,38.34
2023-05-10T05:20:52.927Z,38.38
2023-05-10T05:21:52.924Z,38.34
2023-05-10T05:22:52.900Z,38.35
2023-05-10T05:23:52.933Z,38.33
2023-05-10T05:24:52.902Z,38.31
2023-05-10T05:25:52.892Z,38.33
2023-05-10T05:26:52.930Z,38.29
2023-05-10T05:27:52.884Z,38.28
2023-05-10T05:28:52.882Z,38.24
2023-05-10T05:29:52.845Z,38.25
2023-05-10T05:30:52.900Z,38.32
2023-05-10T05:31:55.336Z,38.27
2023-05-10T05:32:53.114Z,38.30
2023-05-10T05:33:53.603Z,38.38
2023-05-10T05:34:53.167Z,38.49
2023-05-10T05:35:53.170Z,38.96
2023-05-10T05:36:53.172Z,39.35
2023-05-10T05:37:53.171Z,39.30
2023-05-10T05:38:53.602Z,39.49
2023-05-10T05:39:53.377Z,40.31
2023-05-10T05:40:53.264Z,40.56
2023-05-10T05:41:53.271Z,40.30
2023-05-10T05:42:53.230Z,40.70
2023-05-10T05:43:53.600Z,40.83
2023-05-10T05:44:53.298Z,40.89
2023-05-10T05:46:00.350Z,41.00
2023-05-10T05:46:53.350Z,41.03
2023-05-10T05:47:53.339Z,41.07
2023-05-10T05:48:53.636Z,40.67
2023-05-10T05:49:53.126Z,40.84
2023-05-10T05:50:53.129Z,40.52
2023-05-10T05:51:53.108Z,40.73
2023-05-10T05:52:53.057Z,41.03
2023-05-10T05:53:53.106Z,41.04
2023-05-10T05:54:53.017Z,40.70
2023-05-10T05:55:52.972Z,40.56
2023-05-10T05:56:52.928Z,40.55
2023-05-10T05:57:52.909Z,41.19
2023-05-10T05:58:53.177Z,40.43
2023-05-10T05:59:52.852Z,40.03
2023-05-10T06:00:52.833Z,39.69
2023-05-10T06:01:52.791Z,39.58
2023-05-10T06:02:52.817Z,39.74
2023-05-10T06:03:53.546Z,39.35
2023-05-10T06:04:52.725Z,39.02
2023-05-10T06:05:52.686Z,39.00
2023-05-10T06:06:52.650Z,38.95
2023-05-10T06:07:52.737Z,39.13
2023-05-10T06:08:52.623Z,39.11
2023-05-10T06:09:52.623Z,39.08
2023-05-10T06:10:52.581Z,39.06
2023-05-10T06:11:52.533Z,39.07
2023-05-10T06:12:52.540Z,39.21
2023-05-10T06:13:52.534Z,39.21
2023-05-10T06:14:52.548Z,39.17
2023-05-10T06:15:52.557Z,39.26
2023-05-10T06:16:52.688Z,39.24
2023-05-10T06:17:52.568Z,39.22
2023-05-10T06:18:52.526Z,39.26
2023-05-10T06:19:52.623Z,39.28
2023-05-10T06:20:52.528Z,39.27
2023-05-10T06:21:53.842Z,39.33
2023-05-10T06:22:52.513Z,39.31
2023-05-10T06:23:52.497Z,39.37
2023-05-10T06:24:52.502Z,39.40
2023-05-10T06:25:52.489Z,39.30
2023-05-10T06:26:52.448Z,39.37
2023-05-10T06:27:53.977Z,39.25
2023-05-10T06:28:52.469Z,39.27
2023-05-10T06:30:02.198Z,39.26
2023-05-10T06:30:53.428Z,39.34
2023-05-10T06:31:52.507Z,39.36
2023-05-10T06:32:52.386Z,39.41
2023-05-10T06:33:53.290Z,39.46
2023-05-10T06:34:52.294Z,39.36
2023-05-10T06:35:52.277Z,39.45
2023-05-10T06:36:52.226Z,39.57
2023-05-10T06:37:52.215Z,39.50
2023-05-10T06:38:52.313Z,39.46
2023-05-10T06:39:52.189Z,39.47
2023-05-10T06:40:52.122Z,39.37
2023-05-10T06:41:52.110Z,39.49
2023-05-10T06:42:52.108Z,39.49
2023-05-10T06:43:52.082Z,39.52
2023-05-10T06:44:52.072Z,39.55
2023-05-10T06:45:52.061Z,39.54
2023-05-10T06:46:52.039Z,39.51
2023-05-10T06:47:52.017Z,39.50
2023-05-10T06:48:51.995Z,39.47
2023-05-10T06:49:52.157Z,39.45
2023-05-10T06:50:51.981Z,39.30
2023-05-10T06:51:51.919Z,39.37
2023-05-10T06:52:53.191Z,39.39
2023-05-10T06:53:51.931Z,39.39
2023-05-10T06:54:51.932Z,39.40
2023-05-10T06:55:51.904Z,39.35
2023-05-10T06:56:51.948Z,39.33
2023-05-10T06:57:51.927Z,39.31
2023-05-10T06:58:51.923Z,39.26
2023-05-10T06:59:51.917Z,39.30
2023-05-10T07:00:51.941Z,39.33
2023-05-10T07:01:51.889Z,39.27
2023-05-10T07:02:51.902Z,39.26
2023-05-10T07:03:51.893Z,39.23
2023-05-10T07:04:51.935Z,39.18
2023-05-10T07:05:51.915Z,39.21
2023-05-10T07:06:51.906Z,39.17
2023-05-10T07:07:51.866Z,39.08
2023-05-10T07:08:51.880Z,39.03
2023-05-10T07:09:51.896Z,39.01
2023-05-10T07:10:51.906Z,38.96
2023-05-10T07:11:51.893Z,39.02
2023-05-10T07:12:51.943Z,39.03
2023-05-10T07:13:51.898Z,38.98
2023-05-10T07:14:52.147Z,38.97
2023-05-10T07:15:51.897Z,38.94
2023-05-10T07:16:51.867Z,38.89
2023-05-10T07:17:51.927Z,38.88
2023-05-10T07:18:51.887Z,38.79
2023-05-10T07:19:51.849Z,38.75
2023-05-10T07:20:51.889Z,38.68
2023-05-10T07:21:51.883Z,38.65
2023-05-10T07:22:51.869Z,38.54
2023-05-10T07:23:51.882Z,38.53
2023-05-10T07:24:51.809Z,38.44
2023-05-10T07:25:51.790Z,38.43
2023-05-10T07:26:51.782Z,38.53
2023-05-10T07:27:51.846Z,38.53
2023-05-10T07:28:51.763Z,38.67
2023-05-10T07:29:52.157Z,38.84
2023-05-10T07:30:51.796Z,39.00
2023-05-10T07:31:51.738Z,38.98
2023-05-10T07:32:51.766Z,39.06
2023-05-10T07:33:51.753Z,39.09
2023-05-10T07:34:51.698Z,38.85
2023-05-10T07:35:51.689Z,38.74
2023-05-10T07:36:51.699Z,38.85
2023-05-10T07:37:51.732Z,39.00
2023-05-10T07:38:51.707Z,38.92
2023-05-10T07:39:51.707Z,38.90
2023-05-10T07:40:51.686Z,39.12
2023-05-10T07:41:51.666Z,39.19
2023-05-10T07:42:51.640Z,39.30
2023-05-10T07:43:51.654Z,39.43
2023-05-10T07:44:51.640Z,39.40
2023-05-10T07:45:52.280Z,39.27
2023-05-10T07:46:51.766Z,39.01
2023-05-10T07:47:51.682Z,39.18
2023-05-10T07:48:51.669Z,39.18
2023-05-10T07:49:51.661Z,39.13
2023-05-10T07:50:51.693Z,38.93
2023-05-10T07:51:51.698Z,38.88
2023-05-10T07:52:51.685Z,39.10
2023-05-10T07:53:51.706Z,39.17
2023-05-10T07:54:51.724Z,39.35
2023-05-10T07:55:51.682Z,39.41
2023-05-10T07:56:51.692Z,39.17
2023-05-10T07:57:51.738Z,38.85
2023-05-10T07:58:51.727Z,38.82
2023-05-10T07:59:51.706Z,38.66
2023-05-10T08:00:51.693Z,38.45
2023-05-10T08:01:51.732Z,38.47
2023-05-10T08:02:51.848Z,38.53
2023-05-10T08:03:51.722Z,38.69
2023-05-10T08:04:51.682Z,38.93
2023-05-10T08:05:51.734Z,39.00
2023-05-10T08:06:51.744Z,38.93
2023-05-10T08:07:51.759Z,38.86
2023-05-10T08:08:51.807Z,38.80
2023-05-10T08:09:51.770Z,38.83
2023-05-10T08:10:52.146Z,38.87
2023-05-10T08:11:51.789Z,39.05
2023-05-10T08:12:51.787Z,39.24
2023-05-10T08:13:51.756Z,39.39
2023-05-10T08:14:51.813Z,39.64
2023-05-10T08:15:52.202Z,39.72
2023-05-10T08:16:51.811Z,39.89
2023-05-10T08:17:51.849Z,39.68
2023-05-10T08:18:51.972Z,39.81
2023-05-10T08:19:51.834Z,40.18
2023-05-10T08:20:51.848Z,40.00
2023-05-10T08:21:51.860Z,39.84
2023-05-10T08:22:52.077Z,39.96
2023-05-10T08:23:51.868Z,40.11
2023-05-10T08:24:51.858Z,40.10
2023-05-10T08:25:51.932Z,40.10
2023-05-10T08:26:51.942Z,40.17
2023-05-10T08:27:51.920Z,41.20
2023-05-10T08:28:52.020Z,41.59
2023-05-10T08:29:52.005Z,41.94
2023-05-10T08:30:52.217Z,41.67
2023-05-10T08:31:52.132Z,42.19
2023-05-10T08:32:52.046Z,42.27
2023-05-10T08:33:51.987Z,43.36
2023-05-10T08:34:52.007Z,43.22
2023-05-10T08:35:52.188Z,43.12
2023-05-10T08:36:51.988Z,43.32
2023-05-10T08:37:51.999Z,43.64
2023-05-10T08:38:52.181Z,43.47
2023-05-10T08:39:52.050Z,43.01
2023-05-10T08:40:52.170Z,41.96
2023-05-10T08:41:52.001Z,42.27
2023-05-10T08:42:52.019Z,41.53
2023-05-10T08:43:52.069Z,41.93
2023-05-10T08:44:52.033Z,42.53
2023-05-10T08:45:52.410Z,42.26
2023-05-10T08:46:52.067Z,42.40
2023-05-10T08:47:52.059Z,43.00
2023-05-10T08:48:52.035Z,43.04
2023-05-10T08:49:52.025Z,42.91
2023-05-10T08:50:52.179Z,42.16
2023-05-10T08:51:52.098Z,41.87
2023-05-10T08:52:52.058Z,41.36
2023-05-10T08:53:52.027Z,41.24
2023-05-10T08:54:52.076Z,41.35
2023-05-10T08:55:52.036Z,41.17
2023-05-10T08:56:52.052Z,42.49
2023-05-10T08:57:52.086Z,42.34
2023-05-10T08:58:52.092Z,42.00
2023-05-10T08:59:52.059Z,41.32
2023-05-10T09:00:52.259Z,41.16
2023-05-10T09:01:52.054Z,41.20
2023-05-10T09:02:52.163Z,41.46
2023-05-10T09:03:52.234Z,41.55
2023-05-10T09:04:52.266Z,42.02
2023-05-10T09:05:52.182Z,42.77
2023-05-10T09:06:52.078Z,42.69
2023-05-10T09:07:52.055Z,42.67
2023-05-10T09:08:52.065Z,42.78
2023-05-10T09:09:52.060Z,42.61
2023-05-10T09:10:52.171Z,42.58
2023-05-10T09:11:52.081Z,42.44
2023-05-10T09:12:52.110Z,42.46
2023-05-10T09:13:52.184Z,42.36
2023-05-10T09:14:52.108Z,42.24
2023-05-10T09:15:52.159Z,42.15
2023-05-10T09:16:52.160Z,42.12
2023-05-10T09:17:52.160Z,41.89
2023-05-10T09:18:52.188Z,41.84
2023-05-10T09:19:52.230Z,41.78
2023-05-10T09:20:52.710Z,41.72
2023-05-10T09:21:52.273Z,41.67
2023-05-10T09:22:52.284Z,41.54
2023-05-10T09:23:52.251Z,41.45
2023-05-10T09:24:52.286Z,41.34
2023-05-10T09:25:52.324Z,41.25
2023-05-10T09:26:52.350Z,41.26
2023-05-10T09:27:52.341Z,40.96
2023-05-10T09:28:52.314Z,40.98
2023-05-10T09:29:52.358Z,40.96
2023-05-10T09:30:52.763Z,41.04
2023-05-10T09:31:52.351Z,40.79
2023-05-10T09:32:52.400Z,40.92
2023-05-10T09:33:52.358Z,40.81
2023-05-10T09:34:52.377Z,40.75
2023-05-10T09:35:52.383Z,40.59
2023-05-10T09:36:52.399Z,40.17
2023-05-10T09:37:52.391Z,40.13
2023-05-10T09:38:52.409Z,40.26
2023-05-10T09:39:52.395Z,40.29
2023-05-10T09:40:52.684Z,40.13
2023-05-10T09:41:52.417Z,40.23
2023-05-10T09:42:52.463Z,40.10
2023-05-10T09:43:52.472Z,39.99
2023-05-10T09:44:52.446Z,40.01
2023-05-10T09:45:52.500Z,40.14
2023-05-10T09:46:52.484Z,40.43
2023-05-10T09:47:52.496Z,40.38
2023-05-10T09:48:52.486Z,40.52
2023-05-10T09:49:52.475Z,39.96
2023-05-10T09:50:52.740Z,40.26
2023-05-10T09:51:52.497Z,39.71
2023-05-10T09:52:52.480Z,39.57
2023-05-10T09:53:52.513Z,39.78
2023-05-10T09:54:53.451Z,39.48
2023-05-10T09:55:52.418Z,39.78
2023-05-10T09:56:52.698Z,39.60
2023-05-10T09:57:52.353Z,39.24
2023-05-10T09:58:52.311Z,39.17
2023-05-10T09:59:52.320Z,39.16
2023-05-10T10:00:52.262Z,39.48
2023-05-10T10:01:52.318Z,39.57
2023-05-10T10:02:52.210Z,39.89
2023-05-10T10:03:52.168Z,39.82
2023-05-10T10:04:52.155Z,39.63
2023-05-10T10:05:52.159Z,39.13
2023-05-10T10:06:52.164Z,39.49
2023-05-10T10:07:52.177Z,39.25
2023-05-10T10:08:52.190Z,39.71
2023-05-10T10:09:52.223Z,39.33
2023-05-10T10:10:52.295Z,39.36
2023-05-10T10:11:52.755Z,39.45
2023-05-10T10:12:52.298Z,39.37
2023-05-10T10:13:52.242Z,39.50
2023-05-10T10:14:52.247Z,39.62
2023-05-10T10:15:52.382Z,39.77
2023-05-10T10:17:05.546Z,39.07
2023-05-10T10:17:53.297Z,38.85
2023-05-10T10:18:52.265Z,38.34
2023-05-10T10:19:52.264Z,37.98
2023-05-10T10:20:52.279Z,37.70
2023-05-10T10:21:52.329Z,37.48
2023-05-10T10:22:52.283Z,37.57
2023-05-10T10:23:52.279Z,37.95
2023-05-10T10:24:52.297Z,38.43
2023-05-10T10:25:52.345Z,38.81
2023-05-10T10:26:52.314Z,38.83
2023-05-10T10:27:52.293Z,38.70
2023-05-10T10:28:52.282Z,38.54
2023-05-10T10:29:52.301Z,38.47
2023-05-10T10:30:52.299Z,37.60
2023-05-10T10:31:52.355Z,37.11
2023-05-10T10:32:52.273Z,37.34
2023-05-10T10:33:52.321Z,37.52
2023-05-10T10:34:52.298Z,38.18
2023-05-10T10:35:52.301Z,38.04
2023-05-10T10:36:52.712Z,37.87
2023-05-10T10:37:52.358Z,37.84
2023-05-10T10:38:52.350Z,38.08
2023-05-10T10:39:52.356Z,38.03
2023-05-10T10:40:52.371Z,38.07
2023-05-10T10:41:52.717Z,38.91
2023-05-10T10:42:52.376Z,39.39
2023-05-10T10:43:52.405Z,39.73
2023-05-10T10:44:52.425Z,39.73
2023-05-10T10:45:52.464Z,39.64
2023-05-10T10:46:52.873Z,39.47
2023-05-10T10:47:52.555Z,39.59
2023-05-10T10:48:52.657Z,39.10
2023-05-10T10:49:52.596Z,39.30
2023-05-10T10:50:52.595Z,39.55
2023-05-10T10:51:52.610Z,39.11
2023-05-10T10:52:52.682Z,39.09
2023-05-10T10:53:52.716Z,39.29
2023-05-10T10:54:52.725Z,39.30
2023-05-10T10:55:52.713Z,39.29
2023-05-10T10:56:52.746Z,39.18
2023-05-10T10:57:52.807Z,39.12
2023-05-10T10:58:52.798Z,38.92
2023-05-10T10:59:52.760Z,39.08
2023-05-10T11:00:52.835Z,38.79
2023-05-10T11:01:52.882Z,38.47
2023-05-10T11:02:52.917Z,37.88
2023-05-10T11:03:52.955Z,37.72
2023-05-10T11:04:52.977Z,37.68
2023-05-10T11:05:52.998Z,37.63
2023-05-10T11:06:53.262Z,37.61
2023-05-10T11:07:53.035Z,37.81
2023-05-10T11:08:53.099Z,37.88
2023-05-10T11:09:53.099Z,37.96
2023-05-10T11:10:53.213Z,38.23
2023-05-10T11:11:53.130Z,38.43
2023-05-10T11:12:53.220Z,38.51
2023-05-10T11:13:53.286Z,38.31
2023-05-10T11:14:53.311Z,38.43
2023-05-10T11:15:53.280Z,38.49
2023-05-10T11:16:53.399Z,38.76
2023-05-10T11:17:53.373Z,38.46
2023-05-10T11:18:53.436Z,38.35
2023-05-10T11:19:53.422Z,38.35
2023-05-10T11:20:53.410Z,38.63
2023-05-10T11:21:53.470Z,39.04
2023-05-10T11:22:53.471Z,39.48
2023-05-10T11:23:53.517Z,39.89
2023-05-10T11:24:53.560Z,39.74
2023-05-10T11:25:53.432Z,39.64
2023-05-10T11:26:53.428Z,39.86
2023-05-10T11:27:53.751Z,39.91
2023-05-10T11:28:53.448Z,39.90
2023-05-10T11:29:53.418Z,39.86
2023-05-10T11:30:53.534Z,39.85
2023-05-10T11:31:53.694Z,39.80
2023-05-10T11:32:53.775Z,39.81
2023-05-10T11:33:54.247Z,39.96
2023-05-10T11:34:53.385Z,39.76
2023-05-10T11:35:53.462Z,39.63
2023-05-10T11:36:53.940Z,39.76
2023-05-10T11:37:53.764Z,39.60
2023-05-10T11:38:53.370Z,39.45
2023-05-10T11:39:54.239Z,39.34
2023-05-10T11:40:53.382Z,39.09
2023-05-10T11:41:53.392Z,39.00
2023-05-10T11:42:53.390Z,39.04
2023-05-10T11:43:53.414Z,39.03
2023-05-10T11:44:53.402Z,38.79
2023-05-10T11:45:53.410Z,38.66
2023-05-10T11:46:53.415Z,38.68
2023-05-10T11:47:53.454Z,38.67
2023-05-10T11:48:53.387Z,38.65
2023-05-10T11:49:53.436Z,38.50
2023-05-10T11:50:53.411Z,38.56
2023-05-10T11:51:53.453Z,38.33
2023-05-10T11:52:53.403Z,38.47
2023-05-10T11:53:53.424Z,38.42
2023-05-10T11:54:53.435Z,38.25
2023-05-10T11:55:53.416Z,38.30
2023-05-10T11:56:53.440Z,38.26
2023-05-10T11:57:53.432Z,38.22
2023-05-10T11:58:53.460Z,38.03
2023-05-10T11:59:53.448Z,37.96
2023-05-10T12:00:53.409Z,37.98
2023-05-10T12:01:53.415Z,38.02
2023-05-10T12:02:53.481Z,37.93
2023-05-10T12:03:53.462Z,37.95
2023-05-10T12:04:53.396Z,38.03
2023-05-10T12:05:53.377Z,37.97
2023-05-10T12:06:53.405Z,37.96
2023-05-10T12:07:53.404Z,37.96
2023-05-10T12:08:53.655Z,37.94
2023-05-10T12:09:53.405Z,37.95
2023-05-10T12:10:53.385Z,38.04
2023-05-10T12:11:53.367Z,38.04
2023-05-10T12:12:53.382Z,38.12
2023-05-10T12:13:53.397Z,38.21
2023-05-10T12:14:53.681Z,38.06
2023-05-10T12:15:53.503Z,38.04
2023-05-10T12:16:53.614Z,38.01
2023-05-10T12:17:53.435Z,37.99
2023-05-10T12:18:53.423Z,37.93
2023-05-10T12:19:53.356Z,38.06
2023-05-10T12:20:53.381Z,37.99
2023-05-10T12:21:53.351Z,38.03
2023-05-10T12:22:53.448Z,37.90
2023-05-10T12:23:53.368Z,38.01
2023-05-10T12:24:53.364Z,37.96
2023-05-10T12:25:53.339Z,37.94
2023-05-10T12:26:53.450Z,37.98
2023-05-10T12:27:53.401Z,38.04
2023-05-10T12:28:53.430Z,38.04
2023-05-10T12:29:53.481Z,37.98
2023-05-10T12:30:53.331Z,38.00
2023-05-10T12:31:53.490Z,38.02
2023-05-10T12:32:53.359Z,38.02
2023-05-10T12:33:53.333Z,38.03
2023-05-10T12:34:53.359Z,38.01
2023-05-10T12:35:53.339Z,38.09
2023-05-10T12:36:53.367Z,37.90
2023-05-10T12:37:53.313Z,37.86
2023-05-10T12:38:53.326Z,37.92
2023-05-10T12:39:53.332Z,37.91
2023-05-10T12:40:53.398Z,37.90
2023-05-10T12:41:53.342Z,37.86
2023-05-10T12:42:53.494Z,37.92
2023-05-10T12:43:53.357Z,38.07
2023-05-10T12:44:53.364Z,38.21
2023-05-10T12:45:53.430Z,38.47
2023-05-10T12:46:53.337Z,38.55
2023-05-10T12:47:53.380Z,39.15
2023-05-10T12:49:03.213Z,39.31
2023-05-10T12:49:54.327Z,40.09
2023-05-10T12:50:53.342Z,41.16
2023-05-10T12:51:53.295Z,41.20
2023-05-10T12:52:53.253Z,41.15